createdAt,value
2023-05-19T00:01:00.380Z,101468.22
2023-05-19T00:03:27.537Z,101468.00
2023-05-19T00:05:54.412Z,101462.00
2023-05-19T00:08:23.546Z,101472.84
2023-05-19T00:10:50.674Z,101459.31
2023-05-19T00:13:17.534Z,101477.41
2023-05-19T00:15:44.442Z,101472.16
2023-05-19T00:18:14.117Z,101480.56
2023-05-19T00:20:41.407Z,101475.75
2023-05-19T00:23:08.280Z,101484.06
2023-05-19T00:25:34.975Z,101495.41
2023-05-19T00:28:02.494Z,101481.75
2023-05-19T00:30:32.362Z,101503.47
2023-05-19T00:32:59.142Z,101502.50
2023-05-19T00:35:26.086Z,101497.38
2023-05-19T00:37:52.904Z,101490.38
2023-05-19T00:40:19.567Z,101514.44
2023-05-19T00:42:46.158Z,101485.97
2023-05-19T00:45:12.726Z,101495.38
2023-05-19T00:47:39.639Z,101511.03
2023-05-19T00:50:06.653Z,101512.75
2023-05-19T00:52:33.303Z,101517.56
2023-05-19T00:55:00.028Z,101506.16
2023-05-19T00:57:27.181Z,101514.81
2023-05-19T00:59:54.081Z,101514.38
2023-05-19T01:02:21.600Z,101508.22
2023-05-19T01:04:48.982Z,101502.53
2023-05-19T01:07:16.496Z,101513.50
2023-05-19T01:09:43.104Z,101510.94
2023-05-19T01:12:09.777Z,101514.72
2023-05-19T01:14:36.433Z,101513.69
2023-05-19T01:17:15.903Z,101519.91
2023-05-19T01:19:42.440Z,101503.28
2023-05-19T01:22:27.969Z,101498.25
2023-05-19T01:25:13.214Z,101497.69
2023-05-19T01:28:01.311Z,101494.81
2023-05-19T01:30:31.504Z,101500.16
2023-05-19T01:33:03.446Z,101487.28
2023-05-19T01:35:30.970Z,101485.75
2023-05-19T01:37:59.116Z,101484.28
2023-05-19T01:40:27.160Z,101480.06
2023-05-19T01:42:57.417Z,101483.50
2023-05-19T01:45:25.153Z,101476.91
2023-05-19T01:47:56.794Z,101480.72
2023-05-19T01:50:23.833Z,101473.75
2023-05-19T01:52:51.295Z,101473.03
2023-05-19T01:55:18.241Z,101474.00
2023-05-19T01:58:22.583Z,101475.72
2023-05-19T02:01:07.626Z,101471.81
2023-05-19T02:03:43.138Z,101473.22
2023-05-19T02:06:25.009Z,101468.41
2023-05-19T02:08:58.977Z,101465.47
2023-05-19T02:11:56.950Z,101461.25
2023-05-19T02:14:44.427Z,101470.38
2023-05-19T02:17:12.664Z,101464.47
2023-05-19T02:19:42.612Z,101468.50
2023-05-19T02:22:09.279Z,101459.53
2023-05-19T02:24:37.661Z,101466.25
2023-05-19T02:27:04.458Z,101458.16
2023-05-19T02:29:31.097Z,101456.78
2023-05-19T02:31:58.824Z,101453.78
2023-05-19T02:34:25.638Z,101453.50
2023-05-19T02:36:52.330Z,101444.31
2023-05-19T02:39:18.874Z,101447.59
2023-05-19T02:41:45.419Z,101444.75
2023-05-19T02:44:12.031Z,101437.50
2023-05-19T02:46:38.634Z,101436.94
2023-05-19T02:49:05.389Z,101432.81
2023-05-19T02:51:31.967Z,101432.09
2023-05-19T02:53:58.624Z,101426.69
2023-05-19T02:56:26.490Z,101431.81
2023-05-19T02:58:53.168Z,101429.81
2023-05-19T03:01:22.140Z,101420.75
2023-05-19T03:03:48.868Z,101424.31
2023-05-19T03:06:15.657Z,101431.28
2023-05-19T03:08:42.523Z,101428.44
2023-05-19T03:11:09.228Z,101422.50
2023-05-19T03:13:35.802Z,101422.81
2023-05-19T03:16:03.350Z,101419.84
2023-05-19T03:18:30.073Z,101414.72
2023-05-19T03:20:56.855Z,101417.28
2023-05-19T03:23:23.679Z,101422.53
2023-05-19T03:25:50.864Z,101419.13
2023-05-19T03:28:17.415Z,101418.88
2023-05-19T03:30:44.183Z,101427.69
2023-05-19T03:33:11.262Z,101417.59
2023-05-19T03:35:38.131Z,101421.44
2023-05-19T03:38:06.099Z,101426.19
2023-05-19T03:40:32.977Z,101420.09
2023-05-19T03:43:01.100Z,101420.81
2023-05-19T03:45:28.072Z,101432.19
2023-05-19T03:47:54.654Z,101422.25
2023-05-19T03:50:21.664Z,101427.25
2023-05-19T03:52:48.961Z,101433.19
2023-05-19T03:55:16.379Z,101431.22
2023-05-19T03:57:44.392Z,101422.97
2023-05-19T04:00:12.980Z,101426.94
2023-05-19T04:02:39.931Z,101436.19
2023-05-19T04:05:07.284Z,101432.06
2023-05-19T04:07:34.050Z,101434.59
2023-05-19T04:10:00.746Z,101435.59
2023-05-19T04:12:27.358Z,101436.16
2023-05-19T04:14:54.193Z,101433.19
2023-05-19T04:17:21.787Z,101434.03
2023-05-19T04:19:48.405Z,101431.34
2023-05-19T04:22:14.919Z,101421.97
2023-05-19T04:24:41.582Z,101424.84
2023-05-19T04:27:12.229Z,101429.81
2023-05-19T04:29:40.071Z,101431.66
2023-05-19T04:32:07.851Z,101439.47
2023-05-19T04:34:35.437Z,101438.03
2023-05-19T04:37:02.565Z,101439.03
2023-05-19T04:39:29.126Z,101440.59
2023-05-19T04:41:56.639Z,101447.41
2023-05-19T04:44:23.215Z,101440.03
2023-05-19T04:46:50.159Z,101438.94
2023-05-19T04:49:19.213Z,101451.28
2023-05-19T04:51:46.164Z,101449.19
2023-05-19T04:54:12.734Z,101451.16
2023-05-19T04:56:39.359Z,101454.72
2023-05-19T04:59:06.955Z,101447.59
2023-05-19T05:01:33.984Z,101445.38
2023-05-19T05:04:02.592Z,101454.63
2023-05-19T05:06:29.551Z,101449.50
2023-05-19T05:08:57.028Z,101451.50
2023-05-19T05:11:24.095Z,101456.50
2023-05-19T05:13:51.012Z,101456.38
2023-05-19T05:16:18.105Z,101464.88
2023-05-19T05:18:46.870Z,101460.31
2023-05-19T05:21:13.808Z,101468.53
2023-05-19T05:23:40.606Z,101459.72
2023-05-19T05:26:12.494Z,101466.44
2023-05-19T05:28:39.052Z,101464.00
2023-05-19T05:31:05.624Z,101470.53
2023-05-19T05:33:32.222Z,101468.94
2023-05-19T05:35:58.819Z,101459.09
2023-05-19T05:38:25.528Z,101462.69
2023-05-19T05:40:52.253Z,101461.97
2023-05-19T05:43:18.854Z,101456.19
2023-05-19T05:45:45.480Z,101460.84
2023-05-19T05:48:12.370Z,101458.38
2023-05-19T05:50:39.304Z,101455.53
2023-05-19T05:53:07.267Z,101456.53
2023-05-19T05:55:34.443Z,101459.66
2023-05-19T05:58:02.362Z,101462.50
2023-05-19T06:00:29.928Z,101454.53
2023-05-19T06:02:57.298Z,101468.31
2023-05-19T06:05:25.175Z,101471.72
2023-05-19T06:07:51.919Z,101467.88
2023-05-19T06:10:18.726Z,101477.84
2023-05-19T06:12:45.472Z,101476.94
2023-05-19T06:15:12.155Z,101478.59
2023-05-19T06:17:38.976Z,101481.72
2023-05-19T06:20:06.773Z,101481.72
2023-05-19T06:22:33.513Z,101477.44
2023-05-19T06:25:00.168Z,101478.31
2023-05-19T06:27:26.747Z,101474.19
2023-05-19T06:29:59.874Z,101464.09
2023-05-19T06:32:30.456Z,101478.31
2023-05-19T06:35:01.701Z,101478.44
2023-05-19T06:37:28.455Z,101481.31
2023-05-19T06:39:55.089Z,101480.31
2023-05-19T06:42:22.796Z,101485.03
2023-05-19T06:44:50.150Z,101487.75
2023-05-19T06:47:19.864Z,101488.88
2023-05-19T06:49:46.630Z,101495.94
2023-05-19T06:52:13.217Z,101494.69
2023-05-19T06:54:39.774Z,101490.75
2023-05-19T06:57:06.740Z,101493.81
2023-05-19T06:59:33.497Z,101498.03
2023-05-19T07:02:00.186Z,101508.03
2023-05-19T07:04:27.651Z,101502.28
2023-05-19T07:06:55.074Z,101510.00
2023-05-19T07:09:21.986Z,101498.47
2023-05-19T07:11:48.872Z,101500.53
2023-05-19T07:14:16.072Z,101495.34
2023-05-19T07:16:42.734Z,101497.56
2023-05-19T07:19:09.393Z,101505.25
2023-05-19T07:21:36.240Z,101510.66
2023-05-19T07:24:02.806Z,101505.16
2023-05-19T07:26:29.653Z,101496.47
2023-05-19T07:28:56.874Z,101501.00
2023-05-19T07:31:23.595Z,101504.19
2023-05-19T07:33:52.249Z,101501.31
2023-05-19T07:36:20.311Z,101507.22
2023-05-19T07:38:47.173Z,101512.50
2023-05-19T07:41:13.811Z,101517.28
2023-05-19T07:43:40.587Z,101507.63
2023-05-19T07:46:07.227Z,101511.28
2023-05-19T07:48:33.875Z,101518.53
2023-05-19T07:51:01.009Z,101507.34
2023-05-19T07:53:28.076Z,101513.28
2023-05-19T07:55:55.468Z,101514.28
2023-05-19T07:58:23.047Z,101508.75
2023-05-19T08:00:49.684Z,101504.66
2023-05-19T08:03:18.488Z,101506.81
2023-05-19T08:05:45.623Z,101512.69
2023-05-19T08:08:12.835Z,101506.50
2023-05-19T08:10:39.551Z,101508.91
2023-05-19T08:13:06.206Z,101504.63
2023-05-19T08:15:32.953Z,101505.22
2023-05-19T08:17:59.715Z,101500.44
2023-05-19T08:20:26.399Z,101507.84
2023-05-19T08:22:53.037Z,101507.81
2023-05-19T08:25:19.917Z,101506.22
2023-05-19T08:27:46.490Z,101515.41
2023-05-19T08:30:13.305Z,101504.53
2023-05-19T08:32:39.952Z,101498.13
2023-05-19T08:35:07.652Z,101500.69
2023-05-19T08:37:37.096Z,101508.94
2023-05-19T08:40:05.577Z,101508.81
2023-05-19T08:42:33.253Z,101515.66
2023-05-19T08:45:01.013Z,101511.09
2023-05-19T08:47:28.188Z,101512.09
2023-05-19T08:50:05.276Z,101519.06
2023-05-19T08:52:49.559Z,101526.00
2023-05-19T08:55:39.447Z,101523.28
2023-05-19T08:58:06.205Z,101532.47
2023-05-19T09:00:33.868Z,101527.28
2023-05-19T09:03:17.573Z,101532.09
2023-05-19T09:05:46.564Z,101537.63
2023-05-19T09:08:13.500Z,101522.50
2023-05-19T09:10:40.259Z,101528.69
2023-05-19T09:13:06.930Z,101537.22
2023-05-19T09:15:36.869Z,101531.50
2023-05-19T09:18:14.371Z,101531.38
2023-05-19T09:20:43.173Z,101534.59
2023-05-19T09:23:17.043Z,101540.84
2023-05-19T09:25:50.998Z,101531.19
2023-05-19T09:28:31.751Z,101540.00
2023-05-19T09:31:08.967Z,101535.84
2023-05-19T09:33:37.712Z,101533.88
2023-05-19T09:36:11.633Z,101552.25
2023-05-19T09:38:38.987Z,101552.97
2023-05-19T09:41:06.745Z,101541.38
2023-05-19T09:43:34.561Z,101545.72
2023-05-19T09:46:04.862Z,101548.19
2023-05-19T09:48:31.633Z,101552.00
2023-05-19T09:50:59.023Z,101547.00
2023-05-19T09:53:25.890Z,101546.28
2023-05-19T09:55:59.886Z,101551.94
2023-05-19T09:58:27.141Z,101551.72
2023-05-19T10:00:57.213Z,101555.03
2023-05-19T10:03:24.158Z,101551.88
2023-05-19T10:05:51.496Z,101545.66
2023-05-19T10:08:18.250Z,101543.91
2023-05-19T10:10:47.069Z,101543.91
2023-05-19T10:13:14.068Z,101546.38
2023-05-19T10:15:57.301Z,101539.88
2023-05-19T10:18:26.279Z,101544.13
2023-05-19T10:20:52.943Z,101543.41
2023-05-19T10:23:19.552Z,101544.03
2023-05-19T10:25:46.451Z,101550.25
2023-05-19T10:28:15.320Z,101540.22
2023-05-19T10:30:45.532Z,101523.53
2023-05-19T10:33:14.922Z,101525.31
2023-05-19T10:35:47.557Z,101525.66
2023-05-19T10:38:26.006Z,101537.66
2023-05-19T10:41:13.211Z,101534.22
2023-05-19T10:44:11.599Z,101532.50
2023-05-19T10:46:40.137Z,101535.47
2023-05-19T10:49:08.083Z,101529.94
2023-05-19T10:51:36.114Z,101527.38
2023-05-19T10:54:11.042Z,101523.22
2023-05-19T10:56:42.526Z,101529.13
2023-05-19T10:59:32.583Z,101527.41
2023-05-19T11:02:07.059Z,101527.41
2023-05-19T11:04:54.075Z,101534.91
2023-05-19T11:07:22.389Z,101529.66
2023-05-19T11:09:51.457Z,101523.25
2023-05-19T11:12:24.771Z,101527.41
2023-05-19T11:14:58.086Z,101526.16
2023-05-19T11:17:25.680Z,101525.19
2023-05-19T11:19:56.552Z,101521.00
2023-05-19T11:22:25.890Z,101526.13
2023-05-19T11:24:54.570Z,101525.13
2023-05-19T11:27:31.622Z,101521.47
2023-05-19T11:30:00.278Z,101519.63
2023-05-19T11:32:29.364Z,101519.88
2023-05-19T11:34:56.998Z,101525.97
2023-05-19T11:37:23.830Z,101509.47
2023-05-19T11:39:50.756Z,101524.00
2023-05-19T11:42:17.369Z,101518.94
2023-05-19T11:44:47.564Z,101518.41
2023-05-19T11:47:15.068Z,101518.75
2023-05-19T11:49:45.966Z,101514.78
2023-05-19T11:52:12.901Z,101508.75
2023-05-19T11:54:41.865Z,101515.56
2023-05-19T11:57:14.044Z,101518.59
2023-05-19T11:59:45.475Z,101504.56
2023-05-19T12:02:23.063Z,101511.97
2023-05-19T12:04:49.885Z,101502.38
2023-05-19T12:07:18.411Z,101515.34
2023-05-19T12:09:49.365Z,101495.72
2023-05-19T12:12:23.162Z,101507.00
2023-05-19T12:14:54.177Z,101499.78
2023-05-19T12:17:21.417Z,101509.19
2023-05-19T12:19:48.965Z,101503.78
2023-05-19T12:22:16.816Z,101519.16
2023-05-19T12:24:44.418Z,101504.19
2023-05-19T12:27:15.519Z,101519.53
2023-05-19T12:29:42.179Z,101515.28
2023-05-19T12:32:09.593Z,101510.13
2023-05-19T12:34:38.330Z,101499.06
2023-05-19T12:37:06.011Z,101507.19
2023-05-19T12:39:33.857Z,101506.16
2023-05-19T12:42:05.033Z,101514.84
2023-05-19T12:44:31.656Z,101502.19
2023-05-19T12:46:59.579Z,101508.44
2023-05-19T12:49:26.242Z,101500.25
2023-05-19T12:51:53.980Z,101491.88
2023-05-19T12:54:23.712Z,101492.44
2023-05-19T12:56:53.982Z,101482.34
2023-05-19T12:59:37.404Z,101484.22
2023-05-19T13:02:05.316Z,101485.59
2023-05-19T13:04:32.133Z,101494.84
2023-05-19T13:06:58.760Z,101486.13
2023-05-19T13:09:25.802Z,101485.47
2023-05-19T13:11:54.070Z,101477.41
2023-05-19T13:14:20.975Z,101487.06
2023-05-19T13:16:47.621Z,101482.50
2023-05-19T13:19:25.431Z,101479.81
2023-05-19T13:21:52.803Z,101480.41
2023-05-19T13:24:19.473Z,101478.28
2023-05-19T13:26:46.129Z,101472.28
2023-05-19T13:29:12.692Z,101476.41
2023-05-19T13:31:39.411Z,101464.50
2023-05-19T13:34:05.991Z,101450.53
2023-05-19T13:36:36.597Z,101450.41
2023-05-19T13:39:03.567Z,101444.56
2023-05-19T13:41:30.242Z,101454.13
2023-05-19T13:43:59.388Z,101440.44
2023-05-19T13:46:36.506Z,101427.34
2023-05-19T13:49:10.605Z,101425.94
2023-05-19T13:51:37.692Z,101423.06
2023-05-19T13:54:05.165Z,101434.88
2023-05-19T13:56:31.993Z,101439.72
2023-05-19T13:58:58.656Z,101414.53
2023-05-19T14:01:25.479Z,101425.63
2023-05-19T14:03:52.602Z,101421.81
2023-05-19T14:06:19.657Z,101417.25
2023-05-19T14:08:46.489Z,101428.91
2023-05-19T14:11:20.152Z,101411.84
2023-05-19T14:13:51.172Z,101415.13
2023-05-19T14:16:20.458Z,101408.44
2023-05-19T14:18:47.159Z,101405.41
2023-05-19T14:21:13.852Z,101399.75
2023-05-19T14:23:40.558Z,101391.75
2023-05-19T14:26:07.308Z,101391.50
2023-05-19T14:28:34.032Z,101362.47
2023-05-19T14:31:00.744Z,101373.00
2023-05-19T14:33:27.341Z,101364.44
2023-05-19T14:35:54.167Z,101374.72
2023-05-19T14:38:20.867Z,101370.16
2023-05-19T14:40:48.604Z,101367.59
2023-05-19T14:43:15.518Z,101370.28
2023-05-19T14:45:42.219Z,101373.56
2023-05-19T14:48:10.848Z,101373.97
2023-05-19T14:50:38.237Z,101377.53
2023-05-19T14:53:04.960Z,101378.38
2023-05-19T14:55:31.879Z,101378.19
2023-05-19T14:57:58.773Z,101375.16
2023-05-19T15:00:28.449Z,101377.19
2023-05-19T15:02:55.158Z,101374.75
2023-05-19T15:05:24.008Z,101374.91
2023-05-19T15:07:50.927Z,101370.09
2023-05-19T15:10:21.846Z,101362.78
2023-05-19T15:12:48.664Z,101361.19
2023-05-19T15:15:17.768Z,101370.00
2023-05-19T15:17:47.004Z,101360.28
2023-05-19T15:20:13.780Z,101365.09
2023-05-19T15:22:40.323Z,101374.22
2023-05-19T15:25:07.578Z,101375.81
2023-05-19T15:27:37.347Z,101377.69
2023-05-19T15:30:04.889Z,101359.50
2023-05-19T15:32:31.637Z,101367.06
2023-05-19T15:34:58.289Z,101368.94
2023-05-19T15:37:24.948Z,101357.19
2023-05-19T15:39:51.844Z,101364.59
2023-05-19T15:42:18.546Z,101366.84
2023-05-19T15:44:46.273Z,101358.88
2023-05-19T15:47:12.984Z,101352.03
2023-05-19T15:49:39.556Z,101351.66
2023-05-19T15:52:06.568Z,101337.56
2023-05-19T15:54:33.209Z,101339.97
2023-05-19T15:56:59.758Z,101338.97
2023-05-19T15:59:26.352Z,101332.38
2023-05-19T16:01:53.310Z,101333.97
2023-05-19T16:04:20.071Z,101337.91
2023-05-19T16:06:46.792Z,101332.09
2023-05-19T16:09:13.396Z,101324.72
2023-05-19T16:11:39.961Z,101322.34
2023-05-19T16:14:06.569Z,101320.47
2023-05-19T16:16:33.219Z,101311.06
2023-05-19T16:18:59.840Z,101305.75
2023-05-19T16:21:26.513Z,101295.16
2023-05-19T16:23:53.083Z,101302.53
2023-05-19T16:26:19.733Z,101298.66
2023-05-19T16:28:46.302Z,101286.53
2023-05-19T16:31:12.904Z,101294.19
2023-05-19T16:33:40.103Z,101288.78
2023-05-19T16:36:06.910Z,101293.63
2023-05-19T16:38:34.103Z,101292.69
2023-05-19T16:41:00.873Z,101290.59
2023-05-19T16:43:27.494Z,101286.66
2023-05-19T16:45:54.133Z,101286.25
2023-05-19T16:48:20.798Z,101286.25
2023-05-19T16:50:50.639Z,101289.09
2023-05-19T16:53:17.493Z,101292.81
2023-05-19T16:55:44.191Z,101299.22
2023-05-19T16:58:11.606Z,101306.63
2023-05-19T17:00:38.334Z,101310.66
2023-05-19T17:03:05.013Z,101310.09
2023-05-19T17:05:32.279Z,101314.34
2023-05-19T17:07:58.982Z,101314.66
2023-05-19T17:10:25.569Z,101326.19
2023-05-19T17:12:52.126Z,101318.97
2023-05-19T17:15:19.187Z,101319.13
2023-05-19T17:17:45.889Z,101323.81
2023-05-19T17:20:13.376Z,101323.69
2023-05-19T17:22:39.957Z,101325.00
2023-05-19T17:25:07.056Z,101324.84
2023-05-19T17:27:33.651Z,101328.41
2023-05-19T17:30:00.300Z,101328.25
2023-05-19T17:32:28.952Z,101325.97
2023-05-19T17:34:55.789Z,101328.97
2023-05-19T17:37:25.754Z,101337.09
2023-05-19T17:39:52.433Z,101333.09
2023-05-19T17:42:18.992Z,101331.69
2023-05-19T17:44:45.624Z,101337.53
2023-05-19T17:47:12.166Z,101326.28
2023-05-19T17:49:40.241Z,101336.56
2023-05-19T17:52:07.658Z,101335.44
2023-05-19T17:54:34.894Z,101335.03
2023-05-19T17:57:03.527Z,101338.00
2023-05-19T17:59:30.554Z,101330.75
2023-05-19T18:01:57.539Z,101338.28
2023-05-19T18:04:24.532Z,101335.88
2023-05-19T18:06:52.268Z,101331.63
2023-05-19T18:09:23.455Z,101326.22
2023-05-19T18:11:49.993Z,101324.06
2023-05-19T18:14:16.563Z,101320.09
2023-05-19T18:16:43.176Z,101330.31
2023-05-19T18:19:09.978Z,101329.66
2023-05-19T18:21:36.583Z,101329.66
2023-05-19T18:24:04.479Z,101332.88
2023-05-19T18:26:31.433Z,101325.22
2023-05-19T18:29:02.543Z,101337.31
2023-05-19T18:31:29.155Z,101327.78
2023-05-19T18:33:56.203Z,101337.75
2023-05-19T18:36:23.862Z,101325.22
2023-05-19T18:38:50.622Z,101320.25
2023-05-19T18:41:17.265Z,101320.13
2023-05-19T18:43:43.872Z,101324.50
2023-05-19T18:46:10.722Z,101324.63
2023-05-19T18:48:37.381Z,101322.94
2023-05-19T18:51:04.108Z,101322.38
2023-05-19T18:53:34.722Z,101316.56
2023-05-19T18:56:01.684Z,101331.03
2023-05-19T18:58:28.282Z,101312.44
2023-05-19T19:00:55.802Z,101322.22
2023-05-19T19:03:22.824Z,101320.66
2023-05-19T19:05:56.893Z,101319.66
2023-05-19T19:08:23.624Z,101322.94
2023-05-19T19:10:51.805Z,101319.81
2023-05-19T19:13:18.701Z,101330.47
2023-05-19T19:15:46.386Z,101342.28
2023-05-19T19:18:13.384Z,101342.56
2023-05-19T19:20:40.043Z,101332.91
2023-05-19T19:23:07.444Z,101340.88
2023-05-19T19:25:34.132Z,101340.56
2023-05-19T19:28:01.589Z,101340.56
2023-05-19T19:30:29.600Z,101345.97
2023-05-19T19:32:57.058Z,101343.16
2023-05-19T19:35:23.814Z,101347.53
2023-05-19T19:37:52.321Z,101351.81
2023-05-19T19:40:18.986Z,101352.69
2023-05-19T19:42:45.819Z,101347.69
2023-05-19T19:45:14.893Z,101350.97
2023-05-19T19:47:42.263Z,101348.81
2023-05-19T19:50:09.520Z,101345.13
2023-05-19T19:52:36.924Z,101336.31
2023-05-19T19:55:03.900Z,101339.16
2023-05-19T19:57:31.736Z,101331.63
2023-05-19T20:00:05.882Z,101335.31
2023-05-19T20:02:32.822Z,101340.59
2023-05-19T20:05:03.736Z,101338.03
2023-05-19T20:07:30.414Z,101330.91
2023-05-19T20:09:57.665Z,101325.50
2023-05-19T20:12:24.473Z,101337.91
2023-05-19T20:14:54.076Z,101336.03
2023-05-19T20:17:21.227Z,101338.44
2023-05-19T20:19:48.147Z,101338.31
2023-05-19T20:22:15.484Z,101339.16
2023-05-19T20:24:42.051Z,101339.16
2023-05-19T20:27:09.433Z,101334.47
2023-05-19T20:29:36.683Z,101332.19
2023-05-19T20:32:03.382Z,101311.28
2023-05-19T20:34:30.024Z,101317.25
2023-05-19T20:36:56.746Z,101315.81
2023-05-19T20:39:23.324Z,101315.38
2023-05-19T20:41:49.879Z,101315.25
2023-05-19T20:44:16.487Z,101316.09
2023-05-19T20:46:43.093Z,101313.53
2023-05-19T20:49:09.693Z,101313.84
2023-05-19T20:51:36.326Z,101315.53
2023-05-19T20:54:02.951Z,101310.13
2023-05-19T20:56:29.506Z,101311.97
2023-05-19T20:58:56.172Z,101313.00
2023-05-19T21:01:22.867Z,101306.00
2023-05-19T21:03:49.516Z,101302.44
2023-05-19T21:06:16.127Z,101311.25
2023-05-19T21:08:42.674Z,101312.13
2023-05-19T21:11:09.290Z,101311.84
2023-05-19T21:13:39.087Z,101315.25
2023-05-19T21:16:06.134Z,101307.84
2023-05-19T21:18:32.804Z,101309.28
2023-05-19T21:21:02.192Z,101310.97
2023-05-19T21:23:28.839Z,101307.56
2023-05-19T21:25:57.173Z,101306.56
2023-05-19T21:28:23.753Z,101313.66
2023-05-19T21:30:50.510Z,101304.44
2023-05-19T21:33:17.407Z,101306.13
2023-05-19T21:35:45.463Z,101306.13
2023-05-19T21:38:23.354Z,101308.97
2023-05-19T21:40:50.888Z,101318.94
2023-05-19T21:43:17.524Z,101311.97
2023-05-19T21:45:44.126Z,101317.25
2023-05-19T21:48:11.451Z,101309.84
2023-05-19T21:50:38.981Z,101305.81
2023-05-19T21:53:05.647Z,101300.41
2023-05-19T21:55:32.310Z,101297.31
2023-05-19T21:58:00.877Z,101292.75
2023-05-19T22:00:28.889Z,101302.41
2023-05-19T22:02:55.631Z,101301.41
2023-05-19T22:05:22.268Z,101301.25
2023-05-19T22:07:48.839Z,101301.13
2023-05-19T22:10:15.438Z,101292.03
2023-05-19T22:12:42.000Z,101295.56
2023-05-19T22:15:09.256Z,101301.81
2023-05-19T22:17:35.934Z,101296.53
2023-05-19T22:20:02.591Z,101291.31
2023-05-19T22:22:29.185Z,101290.59
2023-05-19T22:24:55.877Z,101298.72
2023-05-19T22:27:22.465Z,101292.44
2023-05-19T22:29:49.046Z,101303.09
2023-05-19T22:32:18.101Z,101302.13
2023-05-19T22:34:44.963Z,101303.81
2023-05-19T22:37:11.766Z,101302.13
2023-05-19T22:39:39.000Z,101299.41
2023-05-19T22:42:05.989Z,101303.81
2023-05-19T22:44:32.610Z,101294.00
2023-05-19T22:46:59.163Z,101285.03
2023-05-19T22:49:27.420Z,101296.72
2023-05-19T22:51:54.079Z,101290.28
2023-05-19T22:54:20.722Z,101292.16
2023-05-19T22:56:48.941Z,101279.63
2023-05-19T22:59:18.036Z,101277.94
2023-05-19T23:01:46.808Z,101284.50
2023-05-19T23:04:14.055Z,101283.63
2023-05-19T23:06:40.778Z,101276.50
2023-05-19T23:09:07.790Z,101263.00
2023-05-19T23:11:35.834Z,101263.13
2023-05-19T23:14:02.587Z,101255.72
2023-05-19T23:16:29.358Z,101258.28
2023-05-19T23:18:56.004Z,101256.44
2023-05-19T23:21:22.712Z,101253.16
2023-05-19T23:23:49.796Z,101244.34
2023-05-19T23:26:16.572Z,101248.78
2023-05-19T23:28:43.478Z,101246.91
2023-05-19T23:31:10.463Z,101246.91
2023-05-19T23:33:37.090Z,101248.06
2023-05-19T23:36:08.326Z,101250.47
2023-05-19T23:38:35.655Z,101251.16
2023-05-19T23:41:02.425Z,101243.75
2023-05-19T23:43:29.307Z,101239.78
2023-05-19T23:45:55.965Z,101244.06
2023-05-19T23:48:22.550Z,101242.19
2023-05-19T23:50:49.227Z,101233.94
2023-05-19T23:53:15.918Z,101240.19
2023-05-19T23:55:42.566Z,101232.09
2023-05-19T23:58:09.257Z,101239.19
